createdAt,value
2018-11-29T00:00:03.906Z,54.864502
2018-11-29T00:00:23.459Z,58.013916
2018-11-29T00:00:43.772Z,59.70459
2018-11-29T00:01:04.285Z,61.431885
2018-11-29T00:01:23.978Z,62.445068
2018-11-29T00:01:43.561Z,62.542725
2018-11-29T00:02:03.173Z,62.646484
2018-11-29T00:02:22.687Z,62.750244
2018-11-29T00:02:42.191Z,62.921143
2018-11-29T00:03:01.759Z,63.427734
2018-11-29T00:03:21.327Z,63.830566
2018-11-29T00:03:40.874Z,63.531494
2018-11-29T00:04:00.447Z,63.024902
2018-11-29T00:04:20.193Z,63.73291
2018-11-29T00:04:39.769Z,63.323975
2018-11-29T00:05:00.019Z,62.817383
2018-11-29T00:05:20.225Z,61.804199
2018-11-29T00:05:39.748Z,60.894775
2018-11-29T00:05:59.321Z,59.680176
2018-11-29T00:06:18.842Z,58.666992
2018-11-29T00:06:38.343Z,58.056641
2018-11-29T00:06:57.949Z,58.868408
2018-11-29T00:07:17.476Z,58.258057
2018-11-29T00:07:36.991Z,58.868408
2018-11-29T00:07:56.503Z,59.27124
2018-11-29T00:08:16.006Z,59.576416
2018-11-29T00:08:35.576Z,60.186768
2018-11-29T00:08:55.125Z,48.760986
2018-11-29T00:09:14.650Z,55.450439
2018-11-29T00:09:34.434Z,59.100342
2018-11-29T00:09:54.234Z,61.230469
2018-11-29T00:10:13.760Z,60.516357
2018-11-29T00:10:33.348Z,60.821533
2018-11-29T00:10:52.871Z,60.821533
2018-11-29T00:11:12.508Z,61.633301
2018-11-29T00:11:33.174Z,62.445068
2018-11-29T00:11:52.715Z,62.8479
2018-11-29T00:12:12.254Z,62.750244
2018-11-29T00:12:31.841Z,63.153076
2018-11-29T00:12:51.357Z,63.256836
2018-11-29T00:13:10.894Z,62.750244
2018-11-29T00:13:30.392Z,63.05542
2018-11-29T00:13:49.967Z,64.068604
2018-11-29T00:14:19.429Z,64.068604
2018-11-29T00:14:42.016Z,63.256836
2018-11-29T00:15:01.622Z,62.243652
2018-11-29T00:15:21.145Z,63.256836
2018-11-29T00:15:41.688Z,64.16626
2018-11-29T00:16:02.912Z,62.8479
2018-11-29T00:16:22.786Z,61.737061
2018-11-29T00:16:43.029Z,60.418701
2018-11-29T00:17:02.599Z,60.211182
2018-11-29T00:17:22.095Z,61.230469
2018-11-29T00:17:42.207Z,61.938477
2018-11-29T00:18:02.966Z,63.354492
2018-11-29T00:18:22.515Z,61.938477
2018-11-29T00:18:42.067Z,60.723877
2018-11-29T00:19:01.652Z,62.243652
2018-11-29T00:19:21.330Z,62.036133
2018-11-29T00:19:41.497Z,61.633301
2018-11-29T00:20:02.005Z,59.80835
2018-11-29T00:20:23.569Z,61.529541
2018-11-29T00:20:45.040Z,63.05542
2018-11-29T00:21:05.360Z,62.445068
2018-11-29T00:21:27.647Z,58.996582
2018-11-29T00:21:47.181Z,58.416748
2018-11-29T00:22:08.922Z,61.328125
2018-11-29T00:22:29.366Z,62.750244
2018-11-29T00:22:51.577Z,61.737061
2018-11-29T00:23:11.098Z,62.036133
2018-11-29T00:23:31.540Z,62.542725
2018-11-29T00:23:54.293Z,62.243652
2018-11-29T00:24:15.779Z,60.949707
2018-11-29T00:24:35.796Z,59.735107
2018-11-29T00:24:57.843Z,62.8479
2018-11-29T00:25:18.028Z,63.05542
2018-11-29T00:25:38.616Z,60.748291
2018-11-29T00:25:59.068Z,61.663818
2018-11-29T00:26:23.571Z,64.575195
2018-11-29T00:26:43.990Z,65.686035
2018-11-29T00:27:06.232Z,66.094971
2018-11-29T00:27:26.299Z,66.094971
2018-11-29T00:27:45.787Z,66.192627
2018-11-29T00:28:05.927Z,65.484619
2018-11-29T00:28:36.028Z,64.776611
2018-11-29T00:28:56.686Z,64.575195
2018-11-29T00:29:17.269Z,64.978027
2018-11-29T00:29:40.276Z,65.924072
2018-11-29T00:30:04.350Z,65.386963
2018-11-29T00:30:33.700Z,65.41748
2018-11-29T00:30:53.195Z,66.296387
2018-11-29T00:31:12.689Z,66.699219
2018-11-29T00:31:32.219Z,66.400146
2018-11-29T00:31:52.720Z,64.703369
2018-11-29T00:32:12.262Z,64.27002
2018-11-29T00:32:31.810Z,65.515137
2018-11-29T00:32:52.849Z,65.924072
2018-11-29T00:33:13.642Z,66.229248
2018-11-29T00:33:33.147Z,65.924072
2018-11-29T00:33:52.661Z,65.820312
2018-11-29T00:34:12.234Z,66.601562
2018-11-29T00:34:31.768Z,66.699219
2018-11-29T00:34:51.407Z,66.192627
2018-11-29T00:35:10.895Z,66.699219
2018-11-29T00:35:30.458Z,66.906738
2018-11-29T00:35:50.010Z,67.718506
2018-11-29T00:36:09.505Z,67.614746
2018-11-29T00:36:29.042Z,67.30957
2018-11-29T00:36:59.101Z,67.30957
2018-11-29T00:37:37.410Z,67.718506
2018-11-29T00:37:57.124Z,67.816162
2018-11-29T00:38:16.659Z,67.614746
2018-11-29T00:38:36.156Z,67.004395
2018-11-29T00:38:56.710Z,67.30957
2018-11-29T00:39:16.602Z,67.718506
2018-11-29T00:39:36.005Z,67.919922
2018-11-29T00:39:55.583Z,67.614746
2018-11-29T00:40:15.122Z,66.497803
2018-11-29T00:40:34.634Z,67.004395
2018-11-29T00:40:54.131Z,67.919922
2018-11-29T00:41:13.632Z,68.017578
2018-11-29T00:41:33.191Z,68.322754
2018-11-29T00:41:53.027Z,68.017578
2018-11-29T00:42:12.524Z,68.121338
2018-11-29T00:42:32.107Z,67.816162
2018-11-29T00:42:51.865Z,68.121338
2018-11-29T00:43:11.678Z,68.017578
2018-11-29T00:43:31.411Z,68.322754
2018-11-29T00:43:50.965Z,68.017578
2018-11-29T00:44:10.547Z,67.510986
2018-11-29T00:44:30.261Z,66.906738
2018-11-29T00:44:50.219Z,67.718506
2018-11-29T00:45:09.693Z,68.225098
2018-11-29T00:45:29.226Z,67.614746
2018-11-29T00:45:48.769Z,65.283203
2018-11-29T00:46:08.357Z,65.081787
2018-11-29T00:46:27.885Z,67.004395
2018-11-29T00:46:47.414Z,67.614746
2018-11-29T00:47:06.941Z,67.30957
2018-11-29T00:47:26.453Z,67.816162
2018-11-29T00:47:46.066Z,68.62793
2018-11-29T00:48:05.602Z,68.731689
2018-11-29T00:48:25.127Z,68.731689
2018-11-29T00:48:44.656Z,68.121338
2018-11-29T00:49:04.181Z,68.225098
2018-11-29T00:49:23.737Z,68.731689
2018-11-29T00:49:43.267Z,67.919922
2018-11-29T00:50:02.842Z,67.108154
2018-11-29T00:50:22.402Z,64.776611
2018-11-29T00:50:41.928Z,66.296387
2018-11-29T00:51:01.427Z,66.400146
2018-11-29T00:51:21.009Z,66.906738
2018-11-29T00:51:40.560Z,67.614746
2018-11-29T00:52:00.168Z,68.52417
2018-11-29T00:52:19.698Z,67.816162
2018-11-29T00:52:39.228Z,68.322754
2018-11-29T00:52:58.758Z,68.829346
2018-11-29T00:53:18.375Z,68.62793
2018-11-29T00:53:37.910Z,68.933105
2018-11-29T00:53:57.496Z,69.335938
2018-11-29T00:54:18.032Z,69.134521
2018-11-29T00:54:38.736Z,68.225098
2018-11-29T00:54:58.776Z,69.543457
2018-11-29T00:55:18.753Z,69.335938
2018-11-29T00:55:38.274Z,69.134521
2018-11-29T00:55:57.808Z,69.030762
2018-11-29T00:56:17.336Z,66.400146
2018-11-29T00:56:36.865Z,67.919922
2018-11-29T00:56:58.065Z,67.108154
2018-11-29T00:57:22.104Z,68.322754
2018-11-29T00:57:41.625Z,69.030762
2018-11-29T00:58:01.234Z,69.335938
2018-11-29T00:58:21.816Z,68.829346
2018-11-29T00:58:42.311Z,67.816162
2018-11-29T00:59:01.864Z,68.52417
2018-11-29T00:59:21.513Z,68.731689
2018-11-29T00:59:42.003Z,69.641113
2018-11-29T01:00:01.551Z,70.050049
2018-11-29T01:00:22.086Z,70.452881
2018-11-29T01:00:41.635Z,70.758057
2018-11-29T01:01:01.172Z,70.758057
2018-11-29T01:01:20.734Z,70.758057
2018-11-29T01:01:40.274Z,70.758057
2018-11-29T01:02:55.714Z,70.349121
2018-11-29T01:03:15.382Z,70.050049
2018-11-29T01:03:34.959Z,69.439697
2018-11-29T01:03:54.618Z,69.543457
2018-11-29T01:04:14.307Z,69.744873
2018-11-29T01:04:33.873Z,69.335938
2018-11-29T01:04:53.396Z,69.439697
2018-11-29T01:05:12.922Z,69.238281
2018-11-29T01:05:32.560Z,69.134521
2018-11-29T01:05:52.050Z,69.439697
2018-11-29T01:06:11.613Z,69.543457
2018-11-29T01:06:31.166Z,69.335938
2018-11-29T01:06:50.850Z,69.543457
2018-11-29T01:07:10.407Z,69.641113
2018-11-29T01:07:30.052Z,68.829346
2018-11-29T01:07:49.575Z,68.829346
2018-11-29T01:08:09.177Z,68.829346
2018-11-29T01:08:28.756Z,69.030762
2018-11-29T01:08:48.375Z,69.238281
2018-11-29T01:09:07.945Z,69.134521
2018-11-29T01:09:27.536Z,68.62793
2018-11-29T01:09:47.065Z,68.62793
2018-11-29T01:10:06.669Z,69.134521
2018-11-29T01:10:26.267Z,69.744873
2018-11-29T01:10:45.812Z,70.050049
2018-11-29T01:11:05.403Z,69.238281
2018-11-29T01:11:25.016Z,68.225098
2018-11-29T01:11:44.533Z,68.62793
2018-11-29T01:12:04.247Z,69.134521
2018-11-29T01:12:23.831Z,69.238281
2018-11-29T01:12:43.468Z,69.134521
2018-11-29T01:13:02.993Z,69.030762
2018-11-29T01:13:22.590Z,69.134521
2018-11-29T01:13:42.119Z,69.842529
2018-11-29T01:14:01.732Z,69.842529
2018-11-29T01:14:21.355Z,70.147705
2018-11-29T01:14:41.000Z,69.641113
2018-11-29T01:15:00.492Z,69.335938
2018-11-29T01:15:20.077Z,69.641113
2018-11-29T01:15:40.244Z,68.933105
2018-11-29T01:16:01.458Z,69.238281
2018-11-29T01:16:23.995Z,69.335938
2018-11-29T01:16:45.408Z,69.439697
2018-11-29T01:17:05.389Z,68.933105
2018-11-29T01:17:28.328Z,68.731689
2018-11-29T01:17:50.091Z,68.933105
2018-11-29T01:18:11.657Z,69.439697
2018-11-29T01:18:31.822Z,69.543457
2018-11-29T01:18:51.625Z,69.543457
2018-11-29T01:19:12.344Z,69.641113
2018-11-29T01:19:32.179Z,68.933105
2018-11-29T01:19:51.793Z,68.829346
2018-11-29T01:20:11.717Z,69.335938
2018-11-29T01:20:31.370Z,69.439697
2018-11-29T01:20:50.944Z,69.134521
2018-11-29T01:21:10.615Z,69.238281
2018-11-29T01:21:30.479Z,69.238281
2018-11-29T01:21:50.452Z,69.439697
2018-11-29T01:22:10.318Z,69.439697
2018-11-29T01:22:30.367Z,68.933105
2018-11-29T01:22:50.430Z,68.933105
2018-11-29T01:23:10.546Z,69.030762
2018-11-29T01:23:31.028Z,68.731689
2018-11-29T01:23:50.726Z,68.731689
2018-11-29T01:24:10.507Z,68.62793
2018-11-29T01:24:30.161Z,68.121338
2018-11-29T01:24:50.004Z,68.017578
2018-11-29T01:25:10.563Z,68.121338
2018-11-29T01:25:30.399Z,68.353271
2018-11-29T01:25:50.373Z,68.426514
2018-11-29T01:26:10.678Z,67.510986
2018-11-29T01:26:30.370Z,68.121338
2018-11-29T01:26:50.540Z,68.255615
2018-11-29T01:27:10.821Z,68.865967
2018-11-29T01:27:30.381Z,68.658447
2018-11-29T01:27:50.893Z,68.560791
2018-11-29T01:28:10.505Z,67.645264
2018-11-29T01:28:30.014Z,67.718506
2018-11-29T01:28:49.524Z,67.84668
2018-11-29T01:29:09.123Z,68.255615
2018-11-29T01:29:28.665Z,68.255615
2018-11-29T01:29:48.258Z,67.950439
2018-11-29T01:30:08.795Z,67.138672
2018-11-29T01:30:28.374Z,67.84668
2018-11-29T01:30:47.920Z,67.443848
2018-11-29T01:31:07.553Z,66.73584
2018-11-29T01:31:27.089Z,65.313721
2018-11-29T01:31:46.605Z,65.112305
2018-11-29T01:32:06.153Z,65.41748
2018-11-29T01:32:25.725Z,67.242432
2018-11-29T01:32:45.244Z,67.034912
2018-11-29T01:33:04.831Z,67.443848
2018-11-29T01:33:24.492Z,67.443848
2018-11-29T01:33:44.008Z,66.937256
2018-11-29T01:34:03.556Z,67.84668
2018-11-29T01:34:23.112Z,68.151855
2018-11-29T01:34:42.690Z,68.151855
2018-11-29T01:35:02.276Z,69.470215
2018-11-29T01:35:21.844Z,66.326904
2018-11-29T01:35:42.425Z,66.326904
2018-11-29T01:36:01.925Z,67.547607
2018-11-29T01:36:21.476Z,67.443848
2018-11-29T01:36:40.986Z,66.125488
2018-11-29T01:37:00.545Z,65.313721
2018-11-29T01:37:20.091Z,66.73584
2018-11-29T01:37:39.633Z,67.547607
2018-11-29T01:37:59.142Z,67.749023
2018-11-29T01:38:18.860Z,67.84668
2018-11-29T01:38:38.428Z,68.353271
2018-11-29T01:38:58.534Z,67.340088
2018-11-29T01:39:18.027Z,67.645264
2018-11-29T01:39:37.580Z,66.326904
2018-11-29T01:39:57.210Z,65.515137
2018-11-29T01:40:16.738Z,63.586426
2018-11-29T01:40:36.269Z,62.371826
2018-11-29T01:40:55.808Z,64.398193
2018-11-29T01:41:16.328Z,66.52832
2018-11-29T01:41:35.973Z,67.547607
2018-11-29T01:41:55.484Z,66.73584
2018-11-29T01:42:15.043Z,65.41748
2018-11-29T01:42:34.692Z,63.995361
2018-11-29T01:42:54.183Z,65.618896
2018-11-29T01:43:13.763Z,65.515137
2018-11-29T01:43:33.343Z,64.807129
2018-11-29T01:43:52.861Z,63.793945
2018-11-29T01:44:13.451Z,64.807129
2018-11-29T01:44:32.988Z,65.924072
2018-11-29T01:44:52.572Z,66.021729
2018-11-29T01:45:12.082Z,66.021729
2018-11-29T01:45:31.609Z,66.430664
2018-11-29T01:45:51.185Z,66.833496
2018-11-29T01:46:11.684Z,66.63208
2018-11-29T01:46:31.216Z,66.229248
2018-11-29T01:46:50.704Z,66.229248
2018-11-29T01:47:19.761Z,66.73584
2018-11-29T01:48:03.478Z,65.716553
2018-11-29T01:48:32.607Z,64.196777
2018-11-29T01:48:52.281Z,65.313721
2018-11-29T01:49:11.804Z,65.515137
2018-11-29T01:49:31.311Z,63.586426
2018-11-29T01:49:50.814Z,61.865234
2018-11-29T01:50:10.414Z,63.48877
2018-11-29T01:50:29.911Z,64.501953
2018-11-29T01:50:49.439Z,64.910889
2018-11-29T01:51:08.988Z,66.021729
2018-11-29T01:51:28.503Z,65.008545
2018-11-29T01:51:48.040Z,64.196777
2018-11-29T01:52:07.834Z,65.618896
2018-11-29T01:52:27.324Z,65.618896
2018-11-29T01:52:46.867Z,65.41748
2018-11-29T01:53:06.409Z,65.716553
2018-11-29T01:53:26.914Z,65.618896
2018-11-29T01:53:46.425Z,66.52832
2018-11-29T01:54:05.944Z,65.716553
2018-11-29T01:54:25.472Z,65.515137
2018-11-29T01:54:44.984Z,65.209961
2018-11-29T01:55:04.671Z,64.398193
2018-11-29T01:55:24.216Z,64.910889
2018-11-29T01:55:43.814Z,66.021729
2018-11-29T01:56:03.333Z,66.430664
2018-11-29T01:56:22.872Z,65.716553
2018-11-29T01:56:42.454Z,66.229248
2018-11-29T01:57:01.972Z,66.73584
2018-11-29T01:57:21.504Z,66.937256
2018-11-29T01:57:41.091Z,66.021729
2018-11-29T01:58:00.683Z,66.430664
2018-11-29T01:58:20.213Z,66.52832
2018-11-29T01:58:39.732Z,67.340088
2018-11-29T01:58:59.251Z,66.937256
2018-11-29T01:59:18.744Z,66.63208
2018-11-29T01:59:38.278Z,65.820312
2018-11-29T01:59:57.792Z,66.937256
2018-11-29T02:00:17.386Z,67.340088
2018-11-29T02:00:36.926Z,66.833496
2018-11-29T02:00:56.578Z,65.820312
2018-11-29T02:01:16.090Z,65.209961
2018-11-29T02:01:35.680Z,67.340088
2018-11-29T02:01:55.221Z,67.950439
2018-11-29T02:02:14.720Z,67.84668
2018-11-29T02:02:34.279Z,66.73584
2018-11-29T02:02:53.791Z,66.937256
2018-11-29T02:03:13.314Z,67.950439
2018-11-29T02:03:32.845Z,68.151855
2018-11-29T02:03:52.444Z,67.340088
2018-11-29T02:04:11.941Z,67.138672
2018-11-29T02:04:31.527Z,67.034912
2018-11-29T02:04:51.043Z,67.443848
2018-11-29T02:05:10.603Z,68.151855
2018-11-29T02:05:30.131Z,66.833496
2018-11-29T02:05:49.692Z,67.242432
2018-11-29T02:06:09.209Z,67.242432
2018-11-29T02:06:28.727Z,67.242432
2018-11-29T02:06:48.262Z,66.937256
2018-11-29T02:07:07.748Z,68.255615
2018-11-29T02:07:27.261Z,67.84668
2018-11-29T02:07:46.765Z,68.054199
2018-11-29T02:08:06.279Z,68.151855
2018-11-29T02:08:25.812Z,67.242432
2018-11-29T02:08:45.323Z,67.443848
2018-11-29T02:09:04.855Z,67.443848
2018-11-29T02:09:24.949Z,67.84668
2018-11-29T02:09:44.488Z,68.865967
2018-11-29T02:10:04.023Z,67.547607
2018-11-29T02:10:24.596Z,67.034912
2018-11-29T02:10:44.121Z,67.443848
2018-11-29T02:11:03.669Z,68.658447
2018-11-29T02:11:23.198Z,68.658447
2018-11-29T02:11:42.806Z,67.547607
2018-11-29T02:12:02.316Z,68.151855
2018-11-29T02:12:21.866Z,67.84668
2018-11-29T02:12:41.407Z,68.658447
2018-11-29T02:13:00.971Z,68.762207
2018-11-29T02:13:20.567Z,68.865967
2018-11-29T02:13:40.107Z,68.457031
2018-11-29T02:13:59.600Z,68.054199
2018-11-29T02:14:19.110Z,68.054199
2018-11-29T02:14:38.642Z,68.457031
2018-11-29T02:14:58.183Z,68.865967
2018-11-29T02:15:17.863Z,68.560791
2018-11-29T02:15:37.388Z,67.138672
2018-11-29T02:15:56.888Z,67.034912
2018-11-29T02:16:16.422Z,67.034912
2018-11-29T02:16:36.902Z,67.443848
2018-11-29T02:16:56.423Z,66.937256
2018-11-29T02:17:15.954Z,65.515137
2018-11-29T02:17:35.504Z,65.112305
2018-11-29T02:17:55.141Z,65.820312
2018-11-29T02:18:14.646Z,65.716553
2018-11-29T02:18:34.161Z,64.099121
2018-11-29T02:18:53.798Z,63.183594
2018-11-29T02:19:13.422Z,63.793945
2018-11-29T02:19:32.968Z,65.209961
2018-11-29T02:19:52.567Z,65.313721
2018-11-29T02:20:13.060Z,63.183594
2018-11-29T02:20:32.726Z,63.586426
2018-11-29T02:20:52.197Z,63.586426
2018-11-29T02:21:11.690Z,62.475586
2018-11-29T02:21:31.201Z,60.650635
2018-11-29T02:21:50.701Z,62.573242
2018-11-29T02:22:10.279Z,62.780762
2018-11-29T02:22:29.794Z,62.908936
2018-11-29T02:22:49.328Z,62.677002
2018-11-29T02:23:08.856Z,62.17041
2018-11-29T02:23:28.362Z,61.968994
2018-11-29T02:23:47.875Z,63.079834
2018-11-29T02:24:07.778Z,63.891602
2018-11-29T02:24:27.286Z,62.17041
2018-11-29T02:24:46.780Z,61.694336
2018-11-29T02:25:06.290Z,63.214111
2018-11-29T02:25:25.889Z,63.995361
2018-11-29T02:25:45.404Z,64.63623
2018-11-29T02:26:04.894Z,64.532471
2018-11-29T02:26:24.477Z,63.586426
2018-11-29T02:26:43.989Z,64.300537
2018-11-29T02:27:03.493Z,64.025879
2018-11-29T02:27:24.203Z,61.895752
2018-11-29T02:27:43.684Z,61.560059
2018-11-29T02:28:03.196Z,62.298584
2018-11-29T02:28:22.758Z,63.616943
2018-11-29T02:28:42.393Z,63.995361
2018-11-29T02:29:01.919Z,63.616943
2018-11-29T02:29:21.417Z,61.993408
2018-11-29T02:29:40.911Z,61.181641
2018-11-29T02:30:00.425Z,60.473633
2018-11-29T02:30:20.148Z,60.980225
2018-11-29T02:30:39.730Z,62.805176
2018-11-29T02:30:59.240Z,63.110352
2018-11-29T02:31:18.760Z,60.980225
2018-11-29T02:31:38.345Z,61.590576
2018-11-29T02:31:57.860Z,62.506104
2018-11-29T02:32:17.367Z,62.60376
2018-11-29T02:32:37.015Z,61.38916
2018-11-29T02:32:56.515Z,61.895752
2018-11-29T02:33:16.056Z,61.694336
2018-11-29T02:33:35.560Z,63.720703
2018-11-29T02:33:55.075Z,65.447998
2018-11-29T02:34:14.575Z,66.052246
2018-11-29T02:34:34.109Z,66.564941
2018-11-29T02:34:53.614Z,66.156006
2018-11-29T02:35:13.150Z,64.532471
2018-11-29T02:35:32.742Z,64.63623
2018-11-29T02:35:52.281Z,64.428711
2018-11-29T02:36:11.793Z,65.447998
2018-11-29T02:36:31.313Z,65.545654
2018-11-29T02:36:50.829Z,65.753174
2018-11-29T02:37:11.351Z,66.461182
2018-11-29T02:37:30.876Z,66.259766
2018-11-29T02:37:50.407Z,67.242432
2018-11-29T02:38:09.979Z,67.071533
2018-11-29T02:38:29.521Z,66.967773
2018-11-29T02:38:49.052Z,66.967773
2018-11-29T02:39:09.776Z,67.578125
2018-11-29T02:39:29.172Z,68.084717
2018-11-29T02:39:48.679Z,66.864014
2018-11-29T02:40:08.169Z,67.169189
2018-11-29T02:40:27.720Z,67.980957
2018-11-29T02:40:47.272Z,68.389893
2018-11-29T02:41:07.786Z,67.779541
2018-11-29T02:41:27.295Z,67.779541
2018-11-29T02:41:46.831Z,67.578125
2018-11-29T02:42:06.341Z,66.967773
2018-11-29T02:42:26.190Z,65.545654
2018-11-29T02:42:48.006Z,64.733887
2018-11-29T02:43:07.552Z,63.720703
2018-11-29T02:43:27.067Z,64.428711
2018-11-29T02:43:46.567Z,64.63623
2018-11-29T02:44:07.054Z,65.240479
2018-11-29T02:44:26.560Z,65.95459
2018-11-29T02:44:46.094Z,66.967773
2018-11-29T02:45:05.608Z,67.578125
2018-11-29T02:45:25.101Z,66.662598
2018-11-29T02:45:44.684Z,65.039062
2018-11-29T02:46:04.217Z,63.824463
2018-11-29T02:46:23.712Z,64.428711
2018-11-29T02:46:43.224Z,64.941406
2018-11-29T02:47:02.761Z,64.129639
2018-11-29T02:47:22.268Z,63.616943
2018-11-29T02:47:41.755Z,63.415527
2018-11-29T02:48:01.269Z,63.616943
2018-11-29T02:48:20.797Z,62.200928
2018-11-29T02:48:40.299Z,61.993408
2018-11-29T02:48:59.826Z,61.791992
2018-11-29T02:49:19.333Z,61.38916
2018-11-29T02:49:38.836Z,63.110352
2018-11-29T02:49:58.385Z,63.922119
2018-11-29T02:50:17.902Z,64.63623
2018-11-29T02:50:37.403Z,65.240479
2018-11-29T02:50:56.968Z,63.110352
2018-11-29T02:51:16.491Z,64.941406
2018-11-29T02:51:36.040Z,65.039062
2018-11-29T02:51:55.565Z,61.993408
2018-11-29T02:52:16.068Z,61.993408
2018-11-29T02:52:35.614Z,62.506104
2018-11-29T02:52:55.201Z,63.110352
2018-11-29T02:53:14.706Z,61.38916
2018-11-29T02:53:34.229Z,59.661865
2018-11-29T02:53:53.741Z,59.356689
2018-11-29T02:54:14.240Z,58.239746
2018-11-29T02:54:33.840Z,59.259033
2018-11-29T02:54:53.339Z,59.967041
2018-11-29T02:55:12.881Z,58.850098
2018-11-29T02:55:32.401Z,61.2854
2018-11-29T02:55:51.952Z,63.214111
2018-11-29T02:56:11.452Z,64.63623
2018-11-29T02:56:30.972Z,64.428711
2018-11-29T02:56:50.466Z,61.083984
2018-11-29T02:57:10.012Z,62.60376
2018-11-29T02:57:30.539Z,63.824463
2018-11-29T02:57:50.063Z,61.993408
2018-11-29T02:58:09.570Z,61.694336
2018-11-29T02:58:29.095Z,63.616943
2018-11-29T02:58:49.590Z,66.052246
2018-11-29T02:59:09.104Z,67.071533
2018-11-29T02:59:28.638Z,67.376709
2018-11-29T02:59:48.179Z,66.564941
2018-11-29T03:00:08.749Z,66.967773
2018-11-29T03:00:28.288Z,67.071533
2018-11-29T03:00:47.868Z,65.753174
2018-11-29T03:01:07.465Z,62.805176
2018-11-29T03:01:26.999Z,63.012695
2018-11-29T03:01:46.525Z,63.922119
2018-11-29T03:02:06.059Z,65.649414
2018-11-29T03:02:25.595Z,66.156006
2018-11-29T03:02:45.191Z,65.344238
2018-11-29T03:03:04.724Z,63.720703
2018-11-29T03:03:24.273Z,63.110352
2018-11-29T03:03:43.796Z,64.837646
2018-11-29T03:04:03.330Z,65.95459
2018-11-29T03:04:22.833Z,66.156006
2018-11-29T03:04:42.354Z,66.052246
2018-11-29T03:05:01.875Z,67.169189
2018-11-29T03:05:21.382Z,67.675781
2018-11-29T03:05:41.677Z,67.474365
2018-11-29T03:06:01.276Z,67.675781
2018-11-29T03:06:20.833Z,68.591309
2018-11-29T03:06:40.410Z,68.792725
2018-11-29T03:06:59.931Z,68.487549
2018-11-29T03:07:19.489Z,68.084717
2018-11-29T03:07:39.034Z,68.084717
2018-11-29T03:07:58.575Z,67.779541
2018-11-29T03:08:18.707Z,67.675781
2018-11-29T03:08:38.308Z,67.272949
2018-11-29T03:08:57.896Z,67.169189
2018-11-29T03:09:17.452Z,67.169189
2018-11-29T03:09:37.435Z,67.272949
2018-11-29T03:09:58.004Z,67.169189
2018-11-29T03:10:17.617Z,67.474365
2018-11-29T03:10:37.202Z,67.169189
2018-11-29T03:10:56.780Z,66.766357
2018-11-29T03:11:16.416Z,66.156006
2018-11-29T03:11:36.029Z,65.142822
2018-11-29T03:11:55.550Z,62.908936
2018-11-29T03:12:15.144Z,63.317871
2018-11-29T03:12:34.747Z,64.532471
2018-11-29T03:12:54.317Z,63.720703
2018-11-29T03:13:13.853Z,62.70752
2018-11-29T03:13:33.371Z,63.824463
2018-11-29T03:13:53.004Z,65.142822
2018-11-29T03:14:12.582Z,65.545654
2018-11-29T03:14:33.515Z,65.95459
2018-11-29T03:14:53.326Z,65.85083
2018-11-29T03:15:12.877Z,65.447998
2018-11-29T03:15:32.433Z,65.039062
2018-11-29T03:15:51.960Z,63.012695
2018-11-29T03:16:12.647Z,64.837646
2018-11-29T03:16:32.225Z,65.240479
2018-11-29T03:16:51.771Z,64.941406
2018-11-29T03:17:11.324Z,64.331055
2018-11-29T03:17:30.900Z,65.545654
2018-11-29T03:17:50.440Z,65.85083
2018-11-29T03:18:10.127Z,63.824463
2018-11-29T03:18:29.682Z,64.941406
2018-11-29T03:18:49.227Z,66.357422
2018-11-29T03:19:08.863Z,65.85083
2018-11-29T03:19:28.456Z,64.941406
2018-11-29T03:19:48.005Z,66.662598
2018-11-29T03:20:07.563Z,67.474365
2018-11-29T03:20:27.133Z,67.071533
2018-11-29T03:20:46.636Z,68.084717
2018-11-29T03:21:06.216Z,68.188477
2018-11-29T03:21:25.832Z,67.675781
2018-11-29T03:21:45.364Z,67.272949
2018-11-29T03:22:04.912Z,66.766357
2018-11-29T03:22:24.549Z,66.967773
2018-11-29T03:22:44.069Z,67.474365
2018-11-29T03:23:03.592Z,67.376709
2018-11-29T03:23:23.151Z,67.883301
2018-11-29T03:23:42.743Z,68.695068
2018-11-29T03:24:02.287Z,68.188477
2018-11-29T03:24:21.851Z,68.286133
2018-11-29T03:24:41.385Z,68.487549
2018-11-29T03:25:00.916Z,68.188477
2018-11-29T03:25:20.612Z,68.084717
2018-11-29T03:25:40.141Z,67.980957
2018-11-29T03:25:59.647Z,67.272949
2018-11-29T03:26:19.235Z,66.967773
2018-11-29T03:26:38.840Z,66.864014
2018-11-29T03:26:59.389Z,67.071533
2018-11-29T03:27:18.950Z,66.662598
2018-11-29T03:27:38.538Z,66.967773
2018-11-29T03:27:58.072Z,67.675781
2018-11-29T03:28:17.618Z,67.474365
2018-11-29T03:28:38.157Z,67.376709
2018-11-29T03:28:57.733Z,67.169189
2018-11-29T03:29:17.309Z,65.95459
2018-11-29T03:29:37.846Z,65.649414
2018-11-29T03:29:57.401Z,66.564941
2018-11-29T03:30:16.954Z,67.071533
2018-11-29T03:30:36.490Z,67.675781
2018-11-29T03:30:56.092Z,68.084717
2018-11-29T03:31:16.636Z,68.188477
2018-11-29T03:31:36.216Z,67.883301
2018-11-29T03:31:55.808Z,67.675781
2018-11-29T03:32:15.352Z,67.376709
2018-11-29T03:32:35.907Z,67.474365
2018-11-29T03:32:55.449Z,68.084717
2018-11-29T03:33:16.009Z,68.695068
2018-11-29T03:33:35.527Z,67.883301
2018-11-29T03:33:55.165Z,67.779541
2018-11-29T03:34:14.680Z,67.272949
2018-11-29T03:34:34.302Z,67.071533
2018-11-29T03:34:53.884Z,67.474365
2018-11-29T03:35:13.459Z,68.286133
2018-11-29T03:35:35.001Z,67.883301
2018-11-29T03:35:55.624Z,67.675781
2018-11-29T03:36:16.153Z,68.389893
2018-11-29T03:36:35.893Z,68.591309
2018-11-29T03:36:55.475Z,68.591309
2018-11-29T03:37:15.012Z,69.000244
2018-11-29T03:37:34.616Z,69.0979
2018-11-29T03:37:54.184Z,68.188477
2018-11-29T03:38:13.737Z,68.286133
2018-11-29T03:38:33.267Z,68.591309
2018-11-29T03:38:52.857Z,68.695068
2018-11-29T03:39:12.403Z,68.487549
2018-11-29T03:39:31.931Z,68.591309
2018-11-29T03:39:51.522Z,68.792725
2018-11-29T03:40:11.078Z,68.695068
2018-11-29T03:40:30.664Z,68.084717
2018-11-29T03:40:50.208Z,68.389893
2018-11-29T03:41:09.768Z,69.000244
2018-11-29T03:41:29.365Z,69.604492
2018-11-29T03:41:48.953Z,69.0979
2018-11-29T03:42:08.514Z,69.000244
2018-11-29T03:42:28.090Z,69.506836
2018-11-29T03:42:47.660Z,69.812012
2018-11-29T03:43:07.194Z,70.013428
2018-11-29T03:43:26.769Z,69.708252
2018-11-29T03:43:46.293Z,69.812012
2018-11-29T03:44:05.837Z,69.909668
2018-11-29T03:44:25.403Z,69.604492
2018-11-29T03:44:45.056Z,69.604492
2018-11-29T03:45:04.578Z,69.506836
2018-11-29T03:45:25.127Z,68.286133
2018-11-29T03:45:44.705Z,68.084717
2018-11-29T03:46:04.265Z,68.591309
2018-11-29T03:46:23.802Z,69.000244
2018-11-29T03:46:43.482Z,69.0979
2018-11-29T03:47:02.992Z,67.578125
2018-11-29T03:47:22.508Z,66.564941
2018-11-29T03:47:42.069Z,67.272949
2018-11-29T03:48:02.578Z,67.980957
2018-11-29T03:48:22.122Z,66.766357
2018-11-29T03:48:41.715Z,66.259766